sensor_id;sensor_type;location;lat;lon;timestamp;P1;durP1;ratioP1;P2;durP2;ratioP2
27580;SDS011;63557;52.302;7.964;2023-03-07T00:01:52;83.97;;;37.80;;
27580;SDS011;63557;52.302;7.964;2023-03-07T00:06:54;88.03;;;38.63;;
27580;SDS011;63557;52.302;7.964;2023-03-07T00:11:54;48.78;;;20.33;;
27580;SDS011;63557;52.302;7.964;2023-03-07T00:16:55;82.87;;;37.30;;
27580;SDS011;63557;52.302;7.964;2023-03-07T00:21:55;84.85;;;36.60;;
27580;SDS011;63557;52.302;7.964;2023-03-07T00:26:55;81.80;;;37.33;;
27580;SDS011;63557;52.302;7.964;2023-03-07T00:31:56;90.67;;;39.57;;
27580;SDS011;63557;52.302;7.964;2023-03-07T00:36:56;83.03;;;36.20;;
27580;SDS011;63557;52.302;7.964;2023-03-07T00:41:56;83.22;;;37.22;;
27580;SDS011;63557;52.302;7.964;2023-03-07T00:46:57;76.97;;;34.22;;
27580;SDS011;63557;52.302;7.964;2023-03-07T00:51:58;87.25;;;41.88;;
27580;SDS011;63557;52.302;7.964;2023-03-07T00:56:59;85.30;;;40.75;;
27580;SDS011;63557;52.302;7.964;2023-03-07T01:01:59;51.03;;;24.02;;
27580;SDS011;63557;52.302;7.964;2023-03-07T01:07:00;83.47;;;38.40;;
27580;SDS011;63557;52.302;7.964;2023-03-07T01:12:00;60.13;;;27.92;;
27580;SDS011;63557;52.302;7.964;2023-03-07T01:17:01;58.08;;;29.85;;
27580;SDS011;63557;52.302;7.964;2023-03-07T01:22:01;53.28;;;27.88;;
27580;SDS011;63557;52.302;7.964;2023-03-07T01:27:03;42.05;;;20.60;;
27580;SDS011;63557;52.302;7.964;2023-03-07T01:32:03;45.60;;;24.90;;
27580;SDS011;63557;52.302;7.964;2023-03-07T01:37:04;41.53;;;23.13;;
27580;SDS011;63557;52.302;7.964;2023-03-07T01:42:05;42.78;;;19.70;;
27580;SDS011;63557;52.302;7.964;2023-03-07T01:47:05;29.83;;;17.30;;
27580;SDS011;63557;52.302;7.964;2023-03-07T01:52:28;36.97;;;20.45;;
27580;SDS011;63557;52.302;7.964;2023-03-07T01:57:32;35.95;;;19.85;;
27580;SDS011;63557;52.302;7.964;2023-03-07T02:02:33;38.47;;;20.48;;
27580;SDS011;63557;52.302;7.964;2023-03-07T02:07:36;38.08;;;20.33;;
27580;SDS011;63557;52.302;7.964;2023-03-07T02:12:40;40.65;;;20.77;;
27580;SDS011;63557;52.302;7.964;2023-03-07T02:17:41;42.50;;;22.50;;
27580;SDS011;63557;52.302;7.964;2023-03-07T02:22:44;38.20;;;21.60;;
27580;SDS011;63557;52.302;7.964;2023-03-07T02:27:44;41.88;;;21.63;;
27580;SDS011;63557;52.302;7.964;2023-03-07T02:32:46;41.80;;;20.77;;
27580;SDS011;63557;52.302;7.964;2023-03-07T02:37:48;32.13;;;18.65;;
27580;SDS011;63557;52.302;7.964;2023-03-07T02:42:53;32.28;;;17.95;;
27580;SDS011;63557;52.302;7.964;2023-03-07T02:47:55;34.22;;;17.92;;
27580;SDS011;63557;52.302;7.964;2023-03-07T02:52:55;36.28;;;19.00;;
27580;SDS011;63557;52.302;7.964;2023-03-07T02:57:56;33.10;;;17.88;;
27580;SDS011;63557;52.302;7.964;2023-03-07T03:02:56;24.10;;;14.35;;
27580;SDS011;63557;52.302;7.964;2023-03-07T03:07:57;28.15;;;16.65;;
27580;SDS011;63557;52.302;7.964;2023-03-07T03:12:57;31.63;;;16.95;;
27580;SDS011;63557;52.302;7.964;2023-03-07T03:17:58;24.93;;;15.37;;
27580;SDS011;63557;52.302;7.964;2023-03-07T03:22:58;30.17;;;16.73;;
27580;SDS011;63557;52.302;7.964;2023-03-07T03:27:59;24.73;;;14.85;;
27580;SDS011;63557;52.302;7.964;2023-03-07T03:33:01;21.85;;;14.52;;
27580;SDS011;63557;52.302;7.964;2023-03-07T03:38:02;19.40;;;11.95;;
27580;SDS011;63557;52.302;7.964;2023-03-07T03:43:03;8.68;;;5.82;;
27580;SDS011;63557;52.302;7.964;2023-03-07T03:48:04;8.02;;;4.57;;
27580;SDS011;63557;52.302;7.964;2023-03-07T03:53:04;4.95;;;3.40;;
27580;SDS011;63557;52.302;7.964;2023-03-07T03:58:05;6.65;;;3.60;;
27580;SDS011;63557;52.302;7.964;2023-03-07T04:03:05;13.07;;;3.88;;
27580;SDS011;63557;52.302;7.964;2023-03-07T04:08:06;9.07;;;4.53;;
27580;SDS011;63557;52.302;7.964;2023-03-07T04:13:09;9.77;;;4.55;;
27580;SDS011;63557;52.302;7.964;2023-03-07T04:18:09;10.00;;;4.07;;
27580;SDS011;63557;52.302;7.964;2023-03-07T04:23:10;7.45;;;3.80;;
27580;SDS011;63557;52.302;7.964;2023-03-07T04:28:11;9.75;;;3.92;;
27580;SDS011;63557;52.302;7.964;2023-03-07T04:33:12;10.10;;;4.25;;
27580;SDS011;63557;52.302;7.964;2023-03-07T04:38:13;13.07;;;4.65;;
27580;SDS011;63557;52.302;7.964;2023-03-07T04:43:13;19.60;;;6.70;;
27580;SDS011;63557;52.302;7.964;2023-03-07T04:48:14;12.88;;;7.60;;
27580;SDS011;63557;52.302;7.964;2023-03-07T04:53:15;17.45;;;8.43;;
27580;SDS011;63557;52.302;7.964;2023-03-07T04:58:16;17.17;;;9.18;;
27580;SDS011;63557;52.302;7.964;2023-03-07T05:03:16;18.95;;;11.00;;
27580;SDS011;63557;52.302;7.964;2023-03-07T05:08:17;20.77;;;11.27;;
27580;SDS011;63557;52.302;7.964;2023-03-07T05:13:17;24.42;;;11.68;;
27580;SDS011;63557;52.302;7.964;2023-03-07T05:18:18;20.20;;;11.20;;
27580;SDS011;63557;52.302;7.964;2023-03-07T05:23:19;23.83;;;11.93;;
27580;SDS011;63557;52.302;7.964;2023-03-07T05:28:22;19.52;;;9.95;;
27580;SDS011;63557;52.302;7.964;2023-03-07T05:33:22;17.48;;;10.18;;
27580;SDS011;63557;52.302;7.964;2023-03-07T05:38:23;16.52;;;9.93;;
27580;SDS011;63557;52.302;7.964;2023-03-07T05:43:23;24.10;;;11.25;;
27580;SDS011;63557;52.302;7.964;2023-03-07T05:48:25;27.70;;;10.57;;
27580;SDS011;63557;52.302;7.964;2023-03-07T05:53:25;16.80;;;8.70;;
27580;SDS011;63557;52.302;7.964;2023-03-07T05:58:26;15.60;;;6.72;;
27580;SDS011;63557;52.302;7.964;2023-03-07T06:03:27;15.15;;;6.88;;
27580;SDS011;63557;52.302;7.964;2023-03-07T06:08:27;11.40;;;5.23;;
27580;SDS011;63557;52.302;7.964;2023-03-07T06:13:28;11.52;;;4.90;;
27580;SDS011;63557;52.302;7.964;2023-03-07T06:18:30;15.10;;;5.75;;
27580;SDS011;63557;52.302;7.964;2023-03-07T06:23:31;15.88;;;5.72;;
27580;SDS011;63557;52.302;7.964;2023-03-07T06:28:33;18.23;;;5.60;;
27580;SDS011;63557;52.302;7.964;2023-03-07T06:33:35;6.30;;;2.72;;
27580;SDS011;63557;52.302;7.964;2023-03-07T06:38:36;18.08;;;5.40;;
27580;SDS011;63557;52.302;7.964;2023-03-07T06:43:36;16.27;;;5.10;;
27580;SDS011;63557;52.302;7.964;2023-03-07T06:48:37;16.65;;;5.07;;
27580;SDS011;63557;52.302;7.964;2023-03-07T06:53:40;14.80;;;4.50;;
27580;SDS011;63557;52.302;7.964;2023-03-07T06:58:41;14.70;;;4.05;;
27580;SDS011;63557;52.302;7.964;2023-03-07T07:03:44;9.35;;;2.90;;
27580;SDS011;63557;52.302;7.964;2023-03-07T07:08:45;7.90;;;2.70;;
27580;SDS011;63557;52.302;7.964;2023-03-07T07:13:46;6.70;;;2.35;;
27580;SDS011;63557;52.302;7.964;2023-03-07T07:18:50;9.43;;;1.97;;
27580;SDS011;63557;52.302;7.964;2023-03-07T07:23:52;11.55;;;2.20;;
27580;SDS011;63557;52.302;7.964;2023-03-07T07:28:52;12.65;;;1.98;;
27580;SDS011;63557;52.302;7.964;2023-03-07T07:33:53;5.32;;;1.98;;
27580;SDS011;63557;52.302;7.964;2023-03-07T07:38:54;10.95;;;3.22;;
27580;SDS011;63557;52.302;7.964;2023-03-07T07:43:55;12.23;;;2.50;;
27580;SDS011;63557;52.302;7.964;2023-03-07T07:49:05;6.68;;;2.65;;
27580;SDS011;63557;52.302;7.964;2023-03-07T07:54:06;10.18;;;4.15;;
27580;SDS011;63557;52.302;7.964;2023-03-07T07:59:06;8.98;;;2.95;;
27580;SDS011;63557;52.302;7.964;2023-03-07T08:04:07;12.52;;;2.83;;
27580;SDS011;63557;52.302;7.964;2023-03-07T08:09:07;13.27;;;3.90;;
27580;SDS011;63557;52.302;7.964;2023-03-07T08:14:08;16.48;;;3.63;;
27580;SDS011;63557;52.302;7.964;2023-03-07T08:19:08;14.07;;;3.40;;
27580;SDS011;63557;52.302;7.964;2023-03-07T08:24:09;7.28;;;3.42;;
27580;SDS011;63557;52.302;7.964;2023-03-07T08:29:10;9.47;;;3.43;;
27580;SDS011;63557;52.302;7.964;2023-03-07T08:34:11;11.40;;;3.38;;
27580;SDS011;63557;52.302;7.964;2023-03-07T08:39:11;11.23;;;3.25;;
27580;SDS011;63557;52.302;7.964;2023-03-07T08:44:11;15.10;;;6.80;;
27580;SDS011;63557;52.302;7.964;2023-03-07T08:49:12;12.13;;;4.32;;
27580;SDS011;63557;52.302;7.964;2023-03-07T08:54:12;6.93;;;2.90;;
27580;SDS011;63557;52.302;7.964;2023-03-07T08:59:12;7.85;;;3.45;;
27580;SDS011;63557;52.302;7.964;2023-03-07T09:04:13;15.73;;;3.60;;
27580;SDS011;63557;52.302;7.964;2023-03-07T09:09:13;15.63;;;8.83;;
27580;SDS011;63557;52.302;7.964;2023-03-07T09:14:13;18.10;;;3.73;;
27580;SDS011;63557;52.302;7.964;2023-03-07T09:19:14;8.95;;;3.22;;
27580;SDS011;63557;52.302;7.964;2023-03-07T09:24:14;7.57;;;2.90;;
27580;SDS011;63557;52.302;7.964;2023-03-07T09:29:15;10.75;;;4.05;;
27580;SDS011;63557;52.302;7.964;2023-03-07T09:34:15;10.38;;;4.20;;
27580;SDS011;63557;52.302;7.964;2023-03-07T09:39:16;9.77;;;3.88;;
27580;SDS011;63557;52.302;7.964;2023-03-07T09:49:59;11.63;;;3.78;;
27580;SDS011;63557;52.302;7.964;2023-03-07T09:55:00;6.45;;;3.78;;
27580;SDS011;63557;52.302;7.964;2023-03-07T10:00:03;5.95;;;3.55;;
27580;SDS011;63557;52.302;7.964;2023-03-07T10:10:15;8.68;;;3.83;;
27580;SDS011;63557;52.302;7.964;2023-03-07T10:15:32;7.18;;;3.00;;
27580;SDS011;63557;52.302;7.964;2023-03-07T10:30:51;5.05;;;3.30;;
27580;SDS011;63557;52.302;7.964;2023-03-07T10:35:55;5.85;;;4.13;;
27580;SDS011;63557;52.302;7.964;2023-03-07T10:41:13;6.50;;;4.10;;
27580;SDS011;63557;52.302;7.964;2023-03-07T10:46:18;5.95;;;3.78;;
27580;SDS011;63557;52.302;7.964;2023-03-07T10:51:52;8.70;;;4.80;;
27580;SDS011;63557;52.302;7.964;2023-03-07T10:57:01;9.10;;;4.03;;
27580;SDS011;63557;52.302;7.964;2023-03-07T11:02:02;6.63;;;4.30;;
27580;SDS011;63557;52.302;7.964;2023-03-07T11:07:18;4.85;;;4.13;;
27580;SDS011;63557;52.302;7.964;2023-03-07T11:12:22;5.22;;;4.07;;
27580;SDS011;63557;52.302;7.964;2023-03-07T11:17:27;10.45;;;4.05;;
27580;SDS011;63557;52.302;7.964;2023-03-07T11:22:37;9.43;;;4.32;;
27580;SDS011;63557;52.302;7.964;2023-03-07T11:27:39;12.05;;;4.90;;
27580;SDS011;63557;52.302;7.964;2023-03-07T11:32:39;9.82;;;4.30;;
27580;SDS011;63557;52.302;7.964;2023-03-07T11:43:20;7.50;;;3.75;;
27580;SDS011;63557;52.302;7.964;2023-03-07T11:53:32;6.30;;;3.22;;
27580;SDS011;63557;52.302;7.964;2023-03-07T12:08:59;7.80;;;3.53;;
27580;SDS011;63557;52.302;7.964;2023-03-07T12:19:14;5.55;;;3.20;;
27580;SDS011;63557;52.302;7.964;2023-03-07T12:24:19;8.45;;;3.25;;
27580;SDS011;63557;52.302;7.964;2023-03-07T12:29:38;7.45;;;2.55;;
27580;SDS011;63557;52.302;7.964;2023-03-07T12:34:42;6.18;;;2.70;;
27580;SDS011;63557;52.302;7.964;2023-03-07T12:39:53;9.10;;;2.80;;
27580;SDS011;63557;52.302;7.964;2023-03-07T12:44:56;6.43;;;3.13;;
27580;SDS011;63557;52.302;7.964;2023-03-07T12:55:14;6.05;;;2.78;;
27580;SDS011;63557;52.302;7.964;2023-03-07T13:00:16;6.00;;;3.03;;
27580;SDS011;63557;52.302;7.964;2023-03-07T13:05:19;12.55;;;3.83;;
27580;SDS011;63557;52.302;7.964;2023-03-07T13:10:21;7.75;;;2.50;;
27580;SDS011;63557;52.302;7.964;2023-03-07T13:30:27;11.60;;;4.95;;
27580;SDS011;63557;52.302;7.964;2023-03-07T13:55:39;32.35;;;20.00;;
27580;SDS011;63557;52.302;7.964;2023-03-07T14:00:40;8.45;;;4.88;;
27580;SDS011;63557;52.302;7.964;2023-03-07T14:05:46;10.32;;;5.40;;
27580;SDS011;63557;52.302;7.964;2023-03-07T14:10:46;5.32;;;3.40;;
27580;SDS011;63557;52.302;7.964;2023-03-07T14:20:55;8.48;;;3.38;;
27580;SDS011;63557;52.302;7.964;2023-03-07T14:26:18;27.20;;;11.90;;
27580;SDS011;63557;52.302;7.964;2023-03-07T14:31:25;72.13;;;26.65;;
27580;SDS011;63557;52.302;7.964;2023-03-07T14:36:28;11.10;;;4.60;;
27580;SDS011;63557;52.302;7.964;2023-03-07T14:52:03;6.50;;;2.30;;
27580;SDS011;63557;52.302;7.964;2023-03-07T14:57:04;3.72;;;2.35;;
27580;SDS011;63557;52.302;7.964;2023-03-07T15:02:12;56.20;;;27.05;;
27580;SDS011;63557;52.302;7.964;2023-03-07T15:07:19;10.40;;;4.85;;
27580;SDS011;63557;52.302;7.964;2023-03-07T15:12:21;29.98;;;21.48;;
27580;SDS011;63557;52.302;7.964;2023-03-07T15:17:25;6.57;;;3.50;;
27580;SDS011;63557;52.302;7.964;2023-03-07T15:22:26;8.93;;;3.33;;
27580;SDS011;63557;52.302;7.964;2023-03-07T15:27:28;8.57;;;2.42;;
27580;SDS011;63557;52.302;7.964;2023-03-07T15:32:37;9.97;;;3.47;;
27580;SDS011;63557;52.302;7.964;2023-03-07T15:37:54;6.90;;;4.72;;
27580;SDS011;63557;52.302;7.964;2023-03-07T15:42:56;11.50;;;4.72;;
27580;SDS011;63557;52.302;7.964;2023-03-07T15:47:58;7.70;;;2.08;;
27580;SDS011;63557;52.302;7.964;2023-03-07T15:53:01;7.78;;;3.25;;
27580;SDS011;63557;52.302;7.964;2023-03-07T15:58:10;11.77;;;4.65;;
27580;SDS011;63557;52.302;7.964;2023-03-07T16:03:16;11.30;;;4.03;;
27580;SDS011;63557;52.302;7.964;2023-03-07T16:08:18;10.60;;;3.90;;
27580;SDS011;63557;52.302;7.964;2023-03-07T16:13:21;14.85;;;4.07;;
27580;SDS011;63557;52.302;7.964;2023-03-07T16:18:22;12.38;;;4.03;;
27580;SDS011;63557;52.302;7.964;2023-03-07T16:23:26;8.40;;;3.50;;
27580;SDS011;63557;52.302;7.964;2023-03-07T16:28:30;21.48;;;7.82;;
27580;SDS011;63557;52.302;7.964;2023-03-07T16:33:30;19.10;;;4.45;;
27580;SDS011;63557;52.302;7.964;2023-03-07T16:38:30;16.37;;;4.57;;
27580;SDS011;63557;52.302;7.964;2023-03-07T16:43:32;14.25;;;6.47;;
27580;SDS011;63557;52.302;7.964;2023-03-07T16:48:33;11.65;;;4.40;;
27580;SDS011;63557;52.302;7.964;2023-03-07T16:53:34;10.13;;;5.65;;
27580;SDS011;63557;52.302;7.964;2023-03-07T16:58:34;11.70;;;6.40;;
27580;SDS011;63557;52.302;7.964;2023-03-07T17:03:34;7.93;;;4.13;;
27580;SDS011;63557;52.302;7.964;2023-03-07T17:08:35;12.88;;;4.47;;
27580;SDS011;63557;52.302;7.964;2023-03-07T17:13:35;8.77;;;3.40;;
27580;SDS011;63557;52.302;7.964;2023-03-07T17:18:36;5.40;;;2.92;;
27580;SDS011;63557;52.302;7.964;2023-03-07T17:23:36;7.82;;;4.47;;
27580;SDS011;63557;52.302;7.964;2023-03-07T17:28:37;9.57;;;4.05;;
27580;SDS011;63557;52.302;7.964;2023-03-07T17:33:38;7.32;;;4.07;;
27580;SDS011;63557;52.302;7.964;2023-03-07T17:38:38;14.90;;;4.30;;
27580;SDS011;63557;52.302;7.964;2023-03-07T17:43:38;16.20;;;8.53;;
27580;SDS011;63557;52.302;7.964;2023-03-07T17:48:39;17.20;;;6.40;;
27580;SDS011;63557;52.302;7.964;2023-03-07T17:53:40;11.75;;;5.85;;
27580;SDS011;63557;52.302;7.964;2023-03-07T17:58:41;9.17;;;6.17;;
27580;SDS011;63557;52.302;7.964;2023-03-07T18:03:41;14.38;;;6.25;;
27580;SDS011;63557;52.302;7.964;2023-03-07T18:08:41;64.55;;;29.80;;
27580;SDS011;63557;52.302;7.964;2023-03-07T18:13:42;15.80;;;8.07;;
27580;SDS011;63557;52.302;7.964;2023-03-07T18:18:42;37.38;;;21.23;;
27580;SDS011;63557;52.302;7.964;2023-03-07T18:23:43;22.83;;;14.68;;
27580;SDS011;63557;52.302;7.964;2023-03-07T18:28:44;21.67;;;12.70;;
27580;SDS011;63557;52.302;7.964;2023-03-07T18:33:46;15.13;;;10.43;;
27580;SDS011;63557;52.302;7.964;2023-03-07T18:38:47;12.15;;;5.90;;
27580;SDS011;63557;52.302;7.964;2023-03-07T18:43:47;9.27;;;5.63;;
27580;SDS011;63557;52.302;7.964;2023-03-07T18:48:48;7.53;;;4.95;;
27580;SDS011;63557;52.302;7.964;2023-03-07T18:53:48;17.58;;;5.50;;
27580;SDS011;63557;52.302;7.964;2023-03-07T18:58:50;12.63;;;5.38;;
27580;SDS011;63557;52.302;7.964;2023-03-07T19:03:53;13.27;;;5.07;;
27580;SDS011;63557;52.302;7.964;2023-03-07T19:08:54;10.75;;;6.35;;
27580;SDS011;63557;52.302;7.964;2023-03-07T19:13:54;14.27;;;5.30;;
27580;SDS011;63557;52.302;7.964;2023-03-07T19:18:55;8.45;;;5.80;;
27580;SDS011;63557;52.302;7.964;2023-03-07T19:23:56;11.30;;;6.60;;
27580;SDS011;63557;52.302;7.964;2023-03-07T19:28:57;19.75;;;7.63;;
27580;SDS011;63557;52.302;7.964;2023-03-07T19:33:57;12.03;;;7.37;;
27580;SDS011;63557;52.302;7.964;2023-03-07T19:38:58;14.10;;;6.75;;
27580;SDS011;63557;52.302;7.964;2023-03-07T19:43:58;12.73;;;8.20;;
27580;SDS011;63557;52.302;7.964;2023-03-07T19:48:59;15.90;;;8.90;;
27580;SDS011;63557;52.302;7.964;2023-03-07T19:53:59;11.70;;;8.60;;
27580;SDS011;63557;52.302;7.964;2023-03-07T19:59:00;16.95;;;9.65;;
27580;SDS011;63557;52.302;7.964;2023-03-07T20:04:01;14.07;;;9.27;;
27580;SDS011;63557;52.302;7.964;2023-03-07T20:09:03;16.88;;;10.48;;
27580;SDS011;63557;52.302;7.964;2023-03-07T20:14:04;17.27;;;10.80;;
27580;SDS011;63557;52.302;7.964;2023-03-07T20:19:05;16.80;;;9.70;;
27580;SDS011;63557;52.302;7.964;2023-03-07T20:24:06;25.23;;;11.93;;
27580;SDS011;63557;52.302;7.964;2023-03-07T20:29:07;19.55;;;11.68;;
27580;SDS011;63557;52.302;7.964;2023-03-07T20:34:09;20.13;;;11.77;;
27580;SDS011;63557;52.302;7.964;2023-03-07T20:39:10;20.05;;;11.77;;
27580;SDS011;63557;52.302;7.964;2023-03-07T20:44:14;20.77;;;13.60;;
27580;SDS011;63557;52.302;7.964;2023-03-07T20:49:14;18.05;;;11.63;;
27580;SDS011;63557;52.302;7.964;2023-03-07T20:54:16;20.75;;;11.82;;
27580;SDS011;63557;52.302;7.964;2023-03-07T20:59:17;13.90;;;9.85;;
27580;SDS011;63557;52.302;7.964;2023-03-07T21:04:17;16.73;;;10.45;;
27580;SDS011;63557;52.302;7.964;2023-03-07T21:09:19;20.90;;;10.80;;
27580;SDS011;63557;52.302;7.964;2023-03-07T21:14:20;16.15;;;10.48;;
27580;SDS011;63557;52.302;7.964;2023-03-07T21:19:20;14.40;;;10.40;;
27580;SDS011;63557;52.302;7.964;2023-03-07T21:24:20;17.13;;;10.07;;
27580;SDS011;63557;52.302;7.964;2023-03-07T21:29:21;20.17;;;11.43;;
27580;SDS011;63557;52.302;7.964;2023-03-07T21:34:21;21.90;;;11.17;;
27580;SDS011;63557;52.302;7.964;2023-03-07T21:39:24;21.43;;;11.23;;
27580;SDS011;63557;52.302;7.964;2023-03-07T21:44:25;30.05;;;12.23;;
27580;SDS011;63557;52.302;7.964;2023-03-07T21:49:25;17.05;;;10.30;;
27580;SDS011;63557;52.302;7.964;2023-03-07T21:54:26;17.13;;;10.70;;
27580;SDS011;63557;52.302;7.964;2023-03-07T21:59:26;21.55;;;11.55;;
27580;SDS011;63557;52.302;7.964;2023-03-07T22:04:27;15.65;;;9.85;;
27580;SDS011;63557;52.302;7.964;2023-03-07T22:09:27;21.67;;;11.40;;
27580;SDS011;63557;52.302;7.964;2023-03-07T22:14:27;28.17;;;10.73;;
27580;SDS011;63557;52.302;7.964;2023-03-07T22:19:28;20.20;;;11.40;;
27580;SDS011;63557;52.302;7.964;2023-03-07T22:24:28;19.05;;;10.25;;
27580;SDS011;63557;52.302;7.964;2023-03-07T22:29:29;19.98;;;10.45;;
27580;SDS011;63557;52.302;7.964;2023-03-07T22:34:29;25.08;;;11.20;;
27580;SDS011;63557;52.302;7.964;2023-03-07T22:39:29;19.73;;;11.45;;
27580;SDS011;63557;52.302;7.964;2023-03-07T22:44:30;15.83;;;9.47;;
27580;SDS011;63557;52.302;7.964;2023-03-07T22:49:30;21.92;;;10.70;;
27580;SDS011;63557;52.302;7.964;2023-03-07T22:54:30;15.13;;;9.55;;
27580;SDS011;63557;52.302;7.964;2023-03-07T22:59:32;19.10;;;9.70;;
27580;SDS011;63557;52.302;7.964;2023-03-07T23:04:32;18.42;;;10.05;;
27580;SDS011;63557;52.302;7.964;2023-03-07T23:09:33;25.17;;;10.57;;
27580;SDS011;63557;52.302;7.964;2023-03-07T23:14:35;16.27;;;10.75;;
27580;SDS011;63557;52.302;7.964;2023-03-07T23:19:35;15.85;;;10.18;;
27580;SDS011;63557;52.302;7.964;2023-03-07T23:24:35;20.50;;;11.20;;
27580;SDS011;63557;52.302;7.964;2023-03-07T23:29:36;19.88;;;10.45;;
27580;SDS011;63557;52.302;7.964;2023-03-07T23:34:36;20.02;;;10.27;;
27580;SDS011;63557;52.302;7.964;2023-03-07T23:39:36;15.98;;;9.60;;
27580;SDS011;63557;52.302;7.964;2023-03-07T23:44:37;19.08;;;10.57;;
27580;SDS011;63557;52.302;7.964;2023-03-07T23:49:37;15.85;;;10.75;;
27580;SDS011;63557;52.302;7.964;2023-03-07T23:54:38;17.30;;;11.32;;
27580;SDS011;63557;52.302;7.964;2023-03-07T23:59:40;22.73;;;11.60;;
